createdAt,value
2018-09-24T00:00:02.642Z,9.77
2018-09-24T00:01:02.589Z,9.70
2018-09-24T00:02:02.593Z,9.75
2018-09-24T00:03:02.621Z,9.81
2018-09-24T00:04:02.642Z,9.74
2018-09-24T00:05:02.670Z,9.78
2018-09-24T00:06:02.696Z,9.71
2018-09-24T00:07:02.720Z,9.75
2018-09-24T00:08:02.744Z,9.72
2018-09-24T00:09:02.771Z,9.75
2018-09-24T00:10:02.796Z,9.67
2018-09-24T00:11:02.821Z,9.74
2018-09-24T00:12:02.847Z,9.63
2018-09-24T00:13:02.873Z,9.71
2018-09-24T00:14:02.899Z,9.62
2018-09-24T00:15:02.925Z,9.62
2018-09-24T00:16:02.947Z,9.67
2018-09-24T00:17:02.972Z,9.67
2018-09-24T00:18:02.996Z,9.59
2018-09-24T00:19:03.023Z,9.62
2018-09-24T00:20:03.048Z,9.71
2018-09-24T00:21:03.073Z,9.67
2018-09-24T00:22:03.099Z,9.66
2018-09-24T00:23:03.126Z,9.66
2018-09-24T00:24:03.148Z,9.66
2018-09-24T00:25:03.178Z,9.57
2018-09-24T00:26:03.203Z,9.63
2018-09-24T00:27:03.226Z,9.63
2018-09-24T00:28:03.251Z,9.59
2018-09-24T00:29:03.276Z,9.57
2018-09-24T00:30:03.303Z,9.66
2018-09-24T00:31:03.327Z,9.50
2018-09-24T00:32:03.352Z,9.60
2018-09-24T00:33:03.378Z,9.45
2018-09-24T00:34:03.406Z,9.48
2018-09-24T00:35:03.429Z,9.53
2018-09-24T00:36:03.453Z,9.50
2018-09-24T00:37:03.479Z,9.48
2018-09-24T00:38:03.504Z,9.48
2018-09-24T00:39:03.531Z,9.47
2018-09-24T00:40:03.556Z,9.47
2018-09-24T00:41:03.580Z,9.53
2018-09-24T00:42:03.609Z,9.50
2018-09-24T00:43:03.671Z,9.44
2018-09-24T00:44:03.661Z,9.44
2018-09-24T00:45:03.697Z,9.50
2018-09-24T00:46:03.728Z,9.50
2018-09-24T00:47:03.734Z,9.41
2018-09-24T00:48:03.757Z,9.44
2018-09-24T00:49:03.782Z,9.44
2018-09-24T00:50:03.810Z,9.41
2018-09-24T00:51:03.835Z,9.45
2018-09-24T00:52:03.858Z,9.47
2018-09-24T00:53:03.885Z,9.50
2018-09-24T00:54:03.909Z,9.50
2018-09-24T00:55:03.936Z,9.41
2018-09-24T00:56:03.961Z,9.39
2018-09-24T00:57:03.986Z,9.42
2018-09-24T00:58:04.012Z,9.41
2018-09-24T00:59:04.040Z,9.42
2018-09-24T01:00:04.061Z,9.32
2018-09-24T01:01:04.089Z,9.34
2018-09-24T01:02:04.113Z,9.35
2018-09-24T01:03:04.137Z,9.32
2018-09-24T01:04:04.167Z,9.32
2018-09-24T01:05:04.189Z,9.27
2018-09-24T01:06:04.218Z,9.21
2018-09-24T01:07:04.238Z,9.23
2018-09-24T01:08:04.265Z,9.20
2018-09-24T01:09:04.288Z,9.24
2018-09-24T01:10:04.314Z,9.23
2018-09-24T01:11:04.341Z,9.21
2018-09-24T01:12:04.366Z,9.23
2018-09-24T01:13:04.389Z,9.27
2018-09-24T01:14:04.418Z,9.23
2018-09-24T01:15:04.441Z,9.23
2018-09-24T01:16:04.466Z,9.20
2018-09-24T01:17:04.490Z,9.16
2018-09-24T01:18:04.518Z,9.24
2018-09-24T01:19:04.561Z,9.16
2018-09-24T01:20:04.584Z,9.14
2018-09-24T01:21:04.592Z,9.11
2018-09-24T01:22:04.617Z,9.14
2018-09-24T01:23:04.644Z,9.16
2018-09-24T01:24:04.669Z,9.16
2018-09-24T01:25:04.693Z,9.17
2018-09-24T01:26:04.718Z,9.16
2018-09-24T01:27:04.745Z,9.11
2018-09-24T01:28:04.770Z,9.16
2018-09-24T01:29:04.795Z,9.14
2018-09-24T01:30:04.835Z,9.19
2018-09-24T01:31:04.847Z,9.11
2018-09-24T01:32:04.871Z,9.05
2018-09-24T01:33:04.895Z,9.11
2018-09-24T01:34:04.922Z,9.04
2018-09-24T01:35:04.946Z,9.16
2018-09-24T01:36:04.978Z,9.12
2018-09-24T01:37:04.996Z,9.03
2018-09-24T01:38:05.024Z,9.05
2018-09-24T01:39:05.049Z,9.11
2018-09-24T01:40:05.078Z,9.11
2018-09-24T01:41:05.107Z,9.09
2018-09-24T01:42:05.122Z,9.19
2018-09-24T01:43:05.153Z,9.19
2018-09-24T01:44:05.172Z,9.17
2018-09-24T01:45:05.199Z,9.14
2018-09-24T01:46:05.223Z,9.23
2018-09-24T01:47:05.268Z,9.23
2018-09-24T01:48:05.273Z,9.23
2018-09-24T01:49:05.303Z,9.23
2018-09-24T01:50:05.327Z,9.21
2018-09-24T01:51:05.350Z,9.30
2018-09-24T01:52:05.374Z,9.24
2018-09-24T01:53:05.401Z,9.26
2018-09-24T01:54:05.429Z,9.23
2018-09-24T01:55:05.453Z,9.23
2018-09-24T01:56:05.478Z,9.27
2018-09-24T01:57:05.502Z,9.14
2018-09-24T01:58:05.527Z,9.11
2018-09-24T01:59:05.551Z,9.14
2018-09-24T02:00:05.582Z,9.20
2018-09-24T02:01:05.604Z,9.17
2018-09-24T02:02:05.627Z,9.11
2018-09-24T02:03:05.653Z,9.17
2018-09-24T02:04:05.678Z,9.11
2018-09-24T02:05:05.705Z,9.03
2018-09-24T02:06:05.728Z,9.04
2018-09-24T02:07:05.754Z,9.19
2018-09-24T02:08:05.779Z,9.09
2018-09-24T02:09:05.806Z,9.00
2018-09-24T02:10:05.831Z,9.05
2018-09-24T02:11:05.857Z,9.04
2018-09-24T02:12:05.882Z,9.08
2018-09-24T02:13:05.906Z,9.09
2018-09-24T02:14:05.930Z,9.09
2018-09-24T02:15:05.955Z,9.01
2018-09-24T02:16:05.979Z,8.98
2018-09-24T02:17:06.005Z,8.95
2018-09-24T02:18:06.033Z,8.97
2018-09-24T02:19:06.057Z,9.00
2018-09-24T02:20:06.086Z,8.98
2018-09-24T02:21:06.106Z,8.98
2018-09-24T02:22:06.134Z,8.94
2018-09-24T02:23:06.157Z,8.97
2018-09-24T02:24:06.181Z,8.94
2018-09-24T02:25:06.209Z,9.00
2018-09-24T02:26:06.233Z,9.00
2018-09-24T02:27:06.259Z,8.98
2018-09-24T02:28:06.284Z,8.92
2018-09-24T02:29:06.309Z,8.92
2018-09-24T02:30:06.334Z,8.98
2018-09-24T02:31:06.359Z,8.97
2018-09-24T02:32:06.385Z,8.97
2018-09-24T02:33:06.407Z,8.97
2018-09-24T02:34:06.435Z,8.94
2018-09-24T02:35:06.460Z,8.92
2018-09-24T02:36:06.483Z,8.92
2018-09-24T02:37:06.511Z,8.92
2018-09-24T02:38:06.536Z,8.92
2018-09-24T02:39:06.560Z,8.82
2018-09-24T02:40:06.586Z,8.79
2018-09-24T02:41:06.609Z,8.74
2018-09-24T02:42:06.636Z,8.79
2018-09-24T02:43:06.659Z,8.89
2018-09-24T02:44:06.684Z,8.83
2018-09-24T02:45:06.711Z,8.79
2018-09-24T02:46:06.734Z,8.77
2018-09-24T02:47:06.761Z,8.77
2018-09-24T02:48:06.784Z,8.80
2018-09-24T02:49:06.809Z,8.79
2018-09-24T02:50:06.834Z,8.76
2018-09-24T02:51:06.859Z,8.79
2018-09-24T02:52:06.885Z,8.68
2018-09-24T02:53:06.911Z,8.69
2018-09-24T02:54:06.936Z,8.69
2018-09-24T02:55:06.961Z,8.68
2018-09-24T02:56:06.985Z,8.58
2018-09-24T02:57:07.010Z,8.64
2018-09-24T02:58:07.033Z,8.72
2018-09-24T02:59:07.058Z,8.61
2018-09-24T03:00:07.086Z,8.65
2018-09-24T03:01:07.119Z,8.64
2018-09-24T03:02:07.133Z,8.71
2018-09-24T03:03:07.159Z,8.71
2018-09-24T03:04:07.185Z,8.65
2018-09-24T03:05:07.209Z,8.62
2018-09-24T03:06:07.234Z,8.61
2018-09-24T03:07:07.259Z,8.57
2018-09-24T03:08:07.282Z,8.50
2018-09-24T03:09:07.310Z,8.49
2018-09-24T03:10:07.335Z,8.43
2018-09-24T03:11:07.361Z,8.40
2018-09-24T03:12:07.380Z,8.42
2018-09-24T03:13:07.406Z,8.40
2018-09-24T03:14:07.432Z,8.42
2018-09-24T03:15:07.457Z,8.35
2018-09-24T03:16:07.482Z,8.34
2018-09-24T03:17:07.509Z,8.31
2018-09-24T03:18:07.532Z,8.36
2018-09-24T03:19:07.559Z,8.36
2018-09-24T03:20:07.584Z,8.34
2018-09-24T03:21:07.608Z,8.32
2018-09-24T03:22:07.631Z,8.34
2018-09-24T03:23:07.656Z,8.36
2018-09-24T03:24:07.682Z,8.25
2018-09-24T03:25:07.706Z,8.31
2018-09-24T03:26:07.814Z,8.28
2018-09-24T03:27:07.757Z,8.26
2018-09-24T03:28:07.782Z,8.29
2018-09-24T03:29:07.807Z,8.25
2018-09-24T03:30:07.829Z,8.28
2018-09-24T03:31:07.858Z,8.25
2018-09-24T03:32:07.879Z,8.28
2018-09-24T03:33:07.909Z,8.35
2018-09-24T03:34:07.932Z,8.26
2018-09-24T03:35:07.955Z,8.28
2018-09-24T03:36:07.979Z,8.26
2018-09-24T03:37:08.006Z,8.24
2018-09-24T03:38:08.028Z,8.25
2018-09-24T03:39:08.053Z,8.24
2018-09-24T03:40:08.077Z,8.29
2018-09-24T03:41:08.103Z,8.26
2018-09-24T03:42:08.129Z,8.28
2018-09-24T03:43:08.154Z,8.25
2018-09-24T03:44:08.177Z,8.25
2018-09-24T03:45:08.203Z,8.26
2018-09-24T03:46:08.228Z,8.25
2018-09-24T03:47:08.269Z,8.25
2018-09-24T03:48:08.276Z,8.26
2018-09-24T03:49:08.302Z,8.26
2018-09-24T03:50:08.327Z,8.25
2018-09-24T03:51:08.351Z,8.25
2018-09-24T03:52:08.383Z,8.26
2018-09-24T03:53:08.401Z,8.25
2018-09-24T03:54:08.426Z,8.21
2018-09-24T03:55:08.453Z,8.22
2018-09-24T03:56:08.478Z,8.24
2018-09-24T03:57:08.502Z,8.25
2018-09-24T03:58:08.525Z,8.22
2018-09-24T03:59:08.686Z,8.17
2018-09-24T04:00:08.575Z,8.25
2018-09-24T04:01:08.599Z,8.28
2018-09-24T04:02:08.626Z,8.26
2018-09-24T04:03:08.654Z,8.28
2018-09-24T04:04:08.675Z,8.16
2018-09-24T04:05:08.698Z,8.13
2018-09-24T04:06:08.723Z,8.11
2018-09-24T04:07:08.748Z,8.06
2018-09-24T04:08:08.774Z,7.99
2018-09-24T04:09:08.799Z,8.04
2018-09-24T04:10:08.870Z,8.03
2018-09-24T04:11:08.863Z,7.96
2018-09-24T04:12:08.872Z,7.98
2018-09-24T04:13:08.895Z,7.80
2018-09-24T04:14:08.921Z,7.86
2018-09-24T04:15:08.945Z,7.89
2018-09-24T04:16:08.971Z,7.83
2018-09-24T04:17:08.996Z,7.91
2018-09-24T04:18:09.021Z,7.92
2018-09-24T04:19:09.046Z,7.83
2018-09-24T04:20:09.074Z,7.98
2018-09-24T04:21:09.111Z,7.95
2018-09-24T04:22:09.139Z,7.93
2018-09-24T04:23:09.145Z,7.96
2018-09-24T04:24:09.168Z,7.95
2018-09-24T04:25:09.210Z,7.98
2018-09-24T04:26:09.244Z,7.93
2018-09-24T04:27:09.242Z,8.04
2018-09-24T04:28:09.268Z,7.98
2018-09-24T04:29:09.290Z,8.03
2018-09-24T04:30:09.316Z,8.01
2018-09-24T04:31:09.340Z,7.96
2018-09-24T04:32:09.366Z,7.95
2018-09-24T04:33:09.388Z,7.95
2018-09-24T04:34:09.415Z,7.96
2018-09-24T04:35:09.439Z,7.99
2018-09-24T04:36:09.461Z,7.95
2018-09-24T04:37:09.488Z,7.95
2018-09-24T04:38:09.512Z,8.01
2018-09-24T04:39:09.538Z,8.01
2018-09-24T04:40:09.562Z,7.96
2018-09-24T04:41:09.585Z,7.93
2018-09-24T04:42:09.611Z,7.93
2018-09-24T04:43:09.840Z,7.91
2018-09-24T04:44:09.659Z,7.88
2018-09-24T04:45:09.682Z,7.92
2018-09-24T04:46:09.709Z,7.82
2018-09-24T04:47:09.732Z,7.80
2018-09-24T04:48:09.763Z,7.88
2018-09-24T04:49:09.868Z,7.82
2018-09-24T04:50:09.807Z,7.88
2018-09-24T04:51:09.831Z,7.88
2018-09-24T04:52:09.853Z,7.89
2018-09-24T04:53:09.895Z,7.82
2018-09-24T04:54:09.903Z,7.88
2018-09-24T04:55:09.929Z,7.83
2018-09-24T04:56:09.951Z,7.80
2018-09-24T04:57:09.975Z,7.88
2018-09-24T04:58:10.002Z,7.88
2018-09-24T04:59:10.027Z,7.86
2018-09-24T05:00:10.049Z,7.88
2018-09-24T05:01:10.074Z,7.86
2018-09-24T05:02:10.101Z,7.83
2018-09-24T05:03:10.123Z,7.78
2018-09-24T05:04:10.146Z,7.83
2018-09-24T05:05:10.170Z,7.89
2018-09-24T05:06:10.202Z,7.86
2018-09-24T05:07:10.219Z,7.85
2018-09-24T05:08:10.245Z,7.78
2018-09-24T05:09:10.268Z,7.82
2018-09-24T05:10:10.299Z,7.74
2018-09-24T05:11:10.317Z,7.75
2018-09-24T05:12:10.343Z,7.80
2018-09-24T05:13:10.365Z,7.74
2018-09-24T05:14:10.392Z,7.74
2018-09-24T05:15:10.414Z,7.74
2018-09-24T05:16:10.470Z,7.71
2018-09-24T05:17:10.464Z,7.77
2018-09-24T05:18:10.487Z,7.78
2018-09-24T05:19:10.511Z,7.77
2018-09-24T05:20:10.540Z,7.78
2018-09-24T05:21:10.560Z,7.83
2018-09-24T05:22:10.585Z,7.86
2018-09-24T05:23:10.612Z,7.89
2018-09-24T05:24:10.633Z,7.88
2018-09-24T05:25:10.660Z,7.88
2018-09-24T05:26:10.682Z,7.86
2018-09-24T05:27:10.755Z,7.83
2018-09-24T05:28:10.732Z,7.88
2018-09-24T05:29:10.756Z,7.78
2018-09-24T05:30:10.781Z,7.91
2018-09-24T05:31:10.804Z,7.83
2018-09-24T05:32:10.829Z,7.83
2018-09-24T05:33:10.852Z,7.86
2018-09-24T05:34:10.878Z,7.80
2018-09-24T05:35:10.900Z,7.86
2018-09-24T05:36:10.969Z,7.85
2018-09-24T05:37:10.951Z,7.89
2018-09-24T05:38:10.974Z,7.85
2018-09-24T05:39:11.000Z,7.93
2018-09-24T05:40:11.023Z,7.86
2018-09-24T05:41:11.072Z,7.92
2018-09-24T05:42:11.071Z,7.91
2018-09-24T05:43:11.095Z,7.93
2018-09-24T05:44:11.135Z,7.95
2018-09-24T05:45:11.145Z,7.99
2018-09-24T05:46:11.170Z,7.98
2018-09-24T05:47:11.195Z,8.03
2018-09-24T05:48:11.222Z,8.03
2018-09-24T05:49:11.243Z,8.01
2018-09-24T05:50:11.265Z,8.13
2018-09-24T05:51:11.290Z,8.19
2018-09-24T05:52:11.316Z,8.17
2018-09-24T05:53:11.341Z,8.19
2018-09-24T05:54:11.416Z,8.24
2018-09-24T05:55:11.389Z,8.26
2018-09-24T05:56:11.412Z,8.29
2018-09-24T05:57:11.436Z,8.25
2018-09-24T05:58:11.462Z,8.36
2018-09-24T05:59:11.485Z,8.32
2018-09-24T06:00:11.511Z,8.39
2018-09-24T06:01:11.535Z,8.43
2018-09-24T06:02:11.560Z,8.49
2018-09-24T06:03:11.583Z,8.47
2018-09-24T06:04:11.606Z,8.58
2018-09-24T06:05:11.633Z,8.60
2018-09-24T06:06:11.659Z,8.58
2018-09-24T06:07:11.682Z,8.54
2018-09-24T06:08:11.705Z,8.65
2018-09-24T06:09:11.729Z,8.69
2018-09-24T06:10:11.756Z,8.67
2018-09-24T06:11:11.780Z,8.71
2018-09-24T06:12:11.805Z,8.61
2018-09-24T06:13:11.827Z,8.65
2018-09-24T06:14:11.852Z,8.64
2018-09-24T06:15:11.881Z,8.64
2018-09-24T06:16:11.903Z,8.76
2018-09-24T06:17:11.927Z,8.77
2018-09-24T06:18:11.954Z,8.74
2018-09-24T06:19:11.980Z,8.76
2018-09-24T06:20:12.001Z,8.77
2018-09-24T06:21:12.025Z,8.80
2018-09-24T06:22:12.049Z,8.80
2018-09-24T06:23:12.081Z,8.80
2018-09-24T06:24:12.099Z,8.87
2018-09-24T06:25:12.123Z,8.92
2018-09-24T06:26:12.155Z,8.94
2018-09-24T06:27:12.172Z,8.94
2018-09-24T06:28:12.197Z,8.95
2018-09-24T06:29:12.222Z,9.03
2018-09-24T06:30:12.247Z,9.09
2018-09-24T06:31:12.272Z,9.17
2018-09-24T06:32:12.298Z,9.17
2018-09-24T06:33:12.325Z,9.19
2018-09-24T06:34:12.382Z,9.12
2018-09-24T06:35:12.371Z,9.14
2018-09-24T06:36:12.397Z,9.19
2018-09-24T06:37:12.423Z,9.24
2018-09-24T06:38:12.447Z,9.29
2018-09-24T06:39:12.488Z,9.24
2018-09-24T06:40:12.497Z,9.38
2018-09-24T06:41:12.536Z,9.30
2018-09-24T06:42:12.545Z,9.41
2018-09-24T06:43:12.574Z,9.34
2018-09-24T06:44:12.597Z,9.32
2018-09-24T06:45:12.620Z,9.47
2018-09-24T06:46:12.645Z,9.47
2018-09-24T06:47:12.672Z,9.48
2018-09-24T06:48:12.695Z,9.53
2018-09-24T06:49:12.722Z,9.53
2018-09-24T06:50:12.747Z,9.57
2018-09-24T06:51:12.772Z,9.60
2018-09-24T06:52:12.795Z,9.55
2018-09-24T06:53:12.823Z,9.62
2018-09-24T06:54:12.846Z,9.70
2018-09-24T06:55:12.876Z,9.71
2018-09-24T06:56:12.896Z,9.72
2018-09-24T06:57:12.924Z,9.70
2018-09-24T06:58:12.950Z,9.72
2018-09-24T06:59:12.973Z,9.84
2018-09-24T07:00:12.998Z,9.82
2018-09-24T07:01:13.024Z,9.93
2018-09-24T07:02:13.050Z,9.95
2018-09-24T07:03:13.093Z,9.89
2018-09-24T07:04:13.101Z,9.84
2018-09-24T07:05:13.143Z,9.89
2018-09-24T07:06:13.151Z,9.96
2018-09-24T07:07:13.176Z,9.85
2018-09-24T07:08:13.199Z,9.90
2018-09-24T07:09:13.227Z,9.92
2018-09-24T07:10:13.250Z,9.96
2018-09-24T07:11:13.284Z,9.96
2018-09-24T07:12:13.303Z,9.96
2018-09-24T07:13:13.329Z,9.98
2018-09-24T07:14:13.351Z,10.18
2018-09-24T07:15:13.377Z,10.13
2018-09-24T07:16:13.404Z,10.23
2018-09-24T07:17:13.430Z,10.28
2018-09-24T07:18:13.456Z,10.35
2018-09-24T07:19:13.481Z,10.36
2018-09-24T07:20:13.504Z,10.51
2018-09-24T07:21:13.575Z,10.57
2018-09-24T07:22:13.557Z,10.67
2018-09-24T07:23:13.592Z,10.77
2018-09-24T07:24:13.606Z,10.80
2018-09-24T07:25:13.632Z,10.92
2018-09-24T07:26:13.657Z,11.12
2018-09-24T07:27:13.683Z,11.52
2018-09-24T07:28:13.721Z,11.85
2018-09-24T07:29:13.734Z,12.52
2018-09-24T07:30:13.763Z,13.40
2018-09-24T07:31:13.790Z,13.99
2018-09-24T07:32:13.812Z,14.20
2018-09-24T07:33:13.856Z,14.36
2018-09-24T07:34:13.877Z,14.31
2018-09-24T07:35:13.894Z,14.51
2018-09-24T07:36:13.921Z,14.74
2018-09-24T07:37:13.946Z,14.80
2018-09-24T07:38:13.982Z,14.98
2018-09-24T07:39:14.003Z,14.97
2018-09-24T07:40:14.030Z,14.80
2018-09-24T07:41:14.060Z,15.27
2018-09-24T07:42:14.087Z,15.45
2018-09-24T07:43:14.233Z,15.20
2018-09-24T07:44:14.149Z,15.47
2018-09-24T07:45:14.175Z,15.43
2018-09-24T07:46:14.208Z,15.58
2018-09-24T07:47:14.233Z,15.53
2018-09-24T07:48:14.263Z,15.59
2018-09-24T07:49:14.294Z,16.00
2018-09-24T07:50:14.326Z,15.95
2018-09-24T07:51:14.355Z,15.92
2018-09-24T07:52:14.383Z,15.86
2018-09-24T07:53:14.414Z,16.17
2018-09-24T07:54:14.445Z,16.32
2018-09-24T07:55:14.485Z,16.63
2018-09-24T07:56:14.509Z,17.31
2018-09-24T07:57:14.540Z,17.55
2018-09-24T07:58:14.572Z,16.90
2018-09-24T07:59:14.603Z,16.91
2018-09-24T08:00:14.635Z,17.09
2018-09-24T08:01:14.672Z,16.99
2018-09-24T08:02:14.697Z,17.10
2018-09-24T08:03:14.738Z,17.57
2018-09-24T08:04:14.762Z,18.16
2018-09-24T08:05:14.814Z,18.36
2018-09-24T08:06:14.850Z,18.53
2018-09-24T08:07:14.889Z,18.05
2018-09-24T08:08:14.894Z,18.01
2018-09-24T08:09:15.251Z,18.10
2018-09-24T08:10:14.961Z,17.76
2018-09-24T08:11:15.013Z,17.77
2018-09-24T08:12:15.028Z,17.45
2018-09-24T08:13:15.141Z,17.50
2018-09-24T08:14:15.095Z,17.65
2018-09-24T08:15:15.132Z,17.46
2018-09-24T08:16:15.164Z,17.95
2018-09-24T08:17:15.197Z,17.71
2018-09-24T08:18:15.298Z,18.26
2018-09-24T08:19:15.268Z,18.23
2018-09-24T08:20:15.300Z,18.11
2018-09-24T08:21:15.336Z,17.99
2018-09-24T08:22:15.369Z,18.31
2018-09-24T08:23:15.404Z,18.49
2018-09-24T08:24:15.440Z,18.21
2018-09-24T08:25:15.477Z,18.50
2018-09-24T08:26:15.508Z,18.36
2018-09-24T08:27:15.545Z,18.20
2018-09-24T08:28:15.579Z,18.42
2018-09-24T08:29:15.614Z,18.26
2018-09-24T08:30:15.650Z,18.89
2018-09-24T08:31:15.684Z,18.84
2018-09-24T08:32:15.720Z,18.26
2018-09-24T08:33:15.754Z,18.19
2018-09-24T08:34:15.791Z,18.06
2018-09-24T08:35:15.828Z,18.24
2018-09-24T08:36:15.899Z,18.19
2018-09-24T08:37:15.898Z,18.56
2018-09-24T08:38:15.967Z,18.90
2018-09-24T08:39:15.971Z,18.97
2018-09-24T08:40:16.004Z,19.30
2018-09-24T08:41:16.040Z,19.43
2018-09-24T08:42:16.076Z,18.61
2018-09-24T08:43:16.111Z,18.91
2018-09-24T08:44:16.538Z,19.27
2018-09-24T08:45:16.184Z,18.82
2018-09-24T08:46:16.219Z,18.86
2018-09-24T08:47:16.257Z,19.05
2018-09-24T08:48:16.289Z,19.23
2018-09-24T08:49:16.331Z,19.25
2018-09-24T08:50:16.381Z,18.87
2018-09-24T08:51:16.398Z,19.05
2018-09-24T08:52:16.442Z,19.02
2018-09-24T08:53:16.506Z,19.28
2018-09-24T08:54:16.509Z,18.87
2018-09-24T08:55:16.545Z,18.93
2018-09-24T08:56:16.580Z,19.49
2018-09-24T08:57:16.698Z,19.52
2018-09-24T08:58:16.654Z,19.71
2018-09-24T08:59:16.690Z,19.68
2018-09-24T09:00:16.725Z,19.40
2018-09-24T09:01:16.759Z,19.12
2018-09-24T09:02:16.797Z,19.40
2018-09-24T09:03:16.835Z,19.80
2018-09-24T09:04:16.870Z,20.05
2018-09-24T09:05:16.905Z,19.79
2018-09-24T09:06:16.941Z,19.89
2018-09-24T09:07:16.978Z,19.50
2018-09-24T09:08:17.084Z,19.57
2018-09-24T09:09:17.053Z,20.12
2018-09-24T09:10:17.089Z,20.02
2018-09-24T09:11:17.127Z,19.37
2018-09-24T09:12:17.162Z,19.50
2018-09-24T09:13:17.197Z,19.61
2018-09-24T09:14:17.253Z,19.89
2018-09-24T09:15:17.290Z,20.35
2018-09-24T09:16:17.365Z,20.78
2018-09-24T09:17:17.344Z,19.52
2018-09-24T09:18:17.400Z,20.12
2018-09-24T09:19:17.417Z,20.10
2018-09-24T09:20:17.454Z,20.35
2018-09-24T09:21:17.491Z,20.02
2018-09-24T09:22:17.531Z,19.65
2018-09-24T09:23:17.568Z,19.68
2018-09-24T09:24:17.604Z,19.63
2018-09-24T09:25:17.638Z,19.57
2018-09-24T09:26:17.675Z,19.72
2018-09-24T09:27:17.712Z,19.90
2018-09-24T09:28:17.751Z,20.11
2018-09-24T09:29:17.840Z,20.19
2018-09-24T09:30:17.823Z,20.30
2018-09-24T09:31:17.861Z,19.82
2018-09-24T09:32:17.901Z,19.85
2018-09-24T09:33:17.932Z,20.26
2018-09-24T09:34:17.971Z,20.44
2018-09-24T09:35:18.032Z,19.93
2018-09-24T09:36:18.043Z,20.01
2018-09-24T09:37:18.079Z,18.26
2018-09-24T09:38:18.117Z,18.20
2018-09-24T09:39:18.156Z,19.19
2018-09-24T09:40:18.189Z,19.63
2018-09-24T09:41:18.227Z,20.04
2018-09-24T09:42:18.265Z,19.06
2018-09-24T09:43:18.300Z,18.61
2018-09-24T09:44:18.335Z,19.35
2018-09-24T09:45:18.375Z,19.49
2018-09-24T09:46:18.409Z,18.44
2018-09-24T09:47:18.447Z,18.56
2018-09-24T09:48:18.481Z,18.03
2018-09-24T09:49:18.519Z,17.79
2018-09-24T09:50:18.553Z,18.66
2018-09-24T09:51:18.590Z,19.65
2018-09-24T09:52:18.626Z,20.12
2018-09-24T09:53:18.666Z,20.68
2018-09-24T09:54:18.700Z,20.05
2018-09-24T09:55:18.733Z,19.92
2018-09-24T09:56:18.767Z,20.02
2018-09-24T09:57:18.804Z,20.42
2018-09-24T09:58:18.841Z,19.71
2018-09-24T09:59:18.963Z,19.42
2018-09-24T10:00:18.911Z,17.87
2018-09-24T10:01:18.948Z,17.46
2018-09-24T10:02:18.983Z,17.60
2018-09-24T10:03:19.019Z,17.55
2018-09-24T10:04:19.054Z,17.30
2018-09-24T10:05:19.090Z,16.51
2018-09-24T10:06:19.128Z,16.17
2018-09-24T10:07:19.160Z,15.77
2018-09-24T10:08:19.197Z,15.58
2018-09-24T10:09:19.231Z,15.60
2018-09-24T10:10:19.264Z,16.00
2018-09-24T10:11:19.452Z,16.25
2018-09-24T10:12:19.330Z,16.54
2018-09-24T10:13:19.366Z,17.43
2018-09-24T10:14:19.398Z,18.97
2018-09-24T10:15:19.432Z,19.70
2018-09-24T10:16:19.464Z,19.02
2018-09-24T10:17:19.497Z,18.59
2018-09-24T10:18:19.531Z,19.63
2018-09-24T10:19:19.564Z,20.71
2018-09-24T10:20:19.598Z,21.09
2018-09-24T10:21:19.630Z,21.33
2018-09-24T10:22:19.665Z,21.52
2018-09-24T10:23:19.699Z,21.51
2018-09-24T10:24:19.733Z,21.80
2018-09-24T10:25:19.766Z,21.40
2018-09-24T10:26:19.799Z,20.93
2018-09-24T10:27:19.834Z,19.47
2018-09-24T10:28:19.868Z,20.60
2018-09-24T10:29:19.902Z,20.79
2018-09-24T10:30:19.940Z,21.18
2018-09-24T10:31:19.972Z,19.90
2018-09-24T10:32:20.009Z,20.35
2018-09-24T10:33:20.042Z,21.33
2018-09-24T10:34:20.078Z,22.07
2018-09-24T10:35:20.114Z,22.12
2018-09-24T10:36:20.147Z,21.06
2018-09-24T10:37:20.185Z,19.60
2018-09-24T10:38:20.218Z,19.50
2018-09-24T10:39:20.254Z,18.97
2018-09-24T10:40:20.289Z,19.40
2018-09-24T10:41:20.325Z,20.60
2018-09-24T10:42:20.359Z,20.38
2018-09-24T10:43:20.395Z,19.42
2018-09-24T10:44:20.431Z,18.24
2018-09-24T10:45:20.468Z,17.49
2018-09-24T10:46:20.504Z,17.05
2018-09-24T10:47:20.536Z,17.86
2018-09-24T10:48:20.571Z,17.42
2018-09-24T10:49:20.604Z,17.21
2018-09-24T10:50:20.641Z,17.09
2018-09-24T10:51:20.674Z,16.90
2018-09-24T10:52:20.707Z,16.66
2018-09-24T10:53:20.749Z,16.51
2018-09-24T10:54:20.775Z,16.32
2018-09-24T10:55:20.809Z,16.29
2018-09-24T10:56:20.844Z,16.29
2018-09-24T10:57:21.198Z,16.39
2018-09-24T10:58:20.910Z,16.73
2018-09-24T10:59:20.948Z,16.99
2018-09-24T11:00:20.974Z,16.94
2018-09-24T11:01:21.005Z,16.81
2018-09-24T11:02:21.039Z,16.94
2018-09-24T11:03:21.070Z,16.52
2018-09-24T11:04:21.099Z,16.13
2018-09-24T11:05:21.132Z,15.89
2018-09-24T11:06:21.167Z,15.89
2018-09-24T11:07:21.199Z,15.88
2018-09-24T11:08:21.227Z,15.68
2018-09-24T11:09:21.257Z,15.71
2018-09-24T11:10:21.322Z,15.91
2018-09-24T11:11:21.342Z,17.69
2018-09-24T11:12:21.349Z,18.90
2018-09-24T11:13:21.396Z,19.70
2018-09-24T11:14:21.436Z,20.19
2018-09-24T11:15:21.444Z,20.32
2018-09-24T11:16:21.523Z,20.30
2018-09-24T11:17:21.632Z,20.44
2018-09-24T11:18:21.536Z,20.76
2018-09-24T11:19:21.568Z,21.08
2018-09-24T11:20:21.601Z,21.25
2018-09-24T11:21:21.632Z,21.96
2018-09-24T11:22:21.762Z,21.59
2018-09-24T11:23:21.697Z,21.16
2018-09-24T11:24:21.727Z,21.48
2018-09-24T11:25:21.760Z,21.22
2018-09-24T11:27:21.829Z,21.46
2018-09-24T11:28:21.880Z,22.14
2018-09-24T11:29:21.956Z,21.19
2018-09-24T11:30:21.928Z,20.32
2018-09-24T11:31:21.962Z,19.12
2018-09-24T11:32:22.002Z,19.20
2018-09-24T11:33:22.030Z,20.42
2018-09-24T11:34:22.065Z,20.15
2018-09-24T11:35:22.100Z,19.52
2018-09-24T11:36:22.132Z,18.94
2018-09-24T11:37:22.166Z,18.47
2018-09-24T11:38:22.203Z,18.72
2018-09-24T11:39:22.235Z,18.26
2018-09-24T11:40:22.271Z,17.88
2018-09-24T11:41:22.302Z,17.94
2018-09-24T11:42:22.336Z,19.43
2018-09-24T11:43:22.372Z,20.68
2018-09-24T11:44:22.405Z,20.27
2018-09-24T11:45:22.440Z,20.38
2018-09-24T11:46:22.515Z,20.86
2018-09-24T11:47:22.507Z,20.93
2018-09-24T11:48:22.537Z,21.11
2018-09-24T11:49:22.572Z,20.91
2018-09-24T11:50:22.605Z,19.12
2018-09-24T11:51:22.639Z,18.24
2018-09-24T11:52:22.672Z,17.84
2018-09-24T11:53:22.707Z,17.96
2018-09-24T11:54:22.742Z,19.24
2018-09-24T11:55:22.774Z,19.42
2018-09-24T11:56:22.815Z,19.74
2018-09-24T11:57:22.839Z,20.01
2018-09-24T11:58:22.875Z,21.27
2018-09-24T11:59:22.910Z,21.55
2018-09-24T12:00:22.946Z,20.83
2018-09-24T12:01:22.973Z,19.37
2018-09-24T12:02:23.040Z,18.86
2018-09-24T12:03:23.044Z,19.89
2018-09-24T12:04:23.075Z,20.71
2018-09-24T12:05:23.107Z,20.58
2018-09-24T12:06:23.143Z,19.50
2018-09-24T12:07:23.212Z,18.66
2018-09-24T12:08:23.207Z,17.92
2018-09-24T12:09:23.240Z,17.46
2018-09-24T12:10:23.276Z,17.47
2018-09-24T12:11:23.308Z,18.87
2018-09-24T12:12:23.353Z,18.61
2018-09-24T12:13:23.372Z,18.02
2018-09-24T12:14:23.453Z,17.86
2018-09-24T12:15:23.440Z,18.14
2018-09-24T12:16:23.472Z,18.86
2018-09-24T12:17:23.503Z,18.38
2018-09-24T12:18:23.538Z,17.96
2018-09-24T12:19:23.569Z,17.55
2018-09-24T12:20:23.603Z,17.24
2018-09-24T12:21:23.634Z,17.02
2018-09-24T12:22:23.666Z,16.67
2018-09-24T12:23:23.697Z,16.42
2018-09-24T12:24:23.729Z,16.17
2018-09-24T12:25:23.762Z,15.93
2018-09-24T12:26:23.791Z,16.04
2018-09-24T12:27:23.839Z,15.70
2018-09-24T12:28:23.855Z,15.33
2018-09-24T12:29:23.887Z,15.12
2018-09-24T12:30:23.916Z,14.87
2018-09-24T12:31:23.948Z,14.71
2018-09-24T12:32:23.978Z,14.61
2018-09-24T12:33:24.009Z,14.31
2018-09-24T12:34:24.037Z,14.24
2018-09-24T12:35:24.068Z,14.45
2018-09-24T12:36:24.097Z,14.31
2018-09-24T12:37:24.130Z,14.21
2018-09-24T12:38:24.160Z,14.21
2018-09-24T12:39:24.240Z,14.16
2018-09-24T12:40:24.219Z,14.16
2018-09-24T12:41:24.249Z,15.18
2018-09-24T12:42:24.278Z,16.94
2018-09-24T12:43:24.308Z,18.16
2018-09-24T12:44:24.337Z,19.28
2018-09-24T12:45:24.365Z,19.86
2018-09-24T12:46:24.397Z,18.99
2018-09-24T12:47:24.425Z,19.02
2018-09-24T12:48:24.458Z,18.79
2018-09-24T12:49:24.485Z,18.51
2018-09-24T12:50:24.515Z,17.66
2018-09-24T12:51:24.546Z,17.06
2018-09-24T12:52:24.574Z,16.69
2018-09-24T12:53:24.674Z,16.29
2018-09-24T12:54:24.638Z,16.11
2018-09-24T12:55:24.680Z,16.06
2018-09-24T12:56:24.695Z,16.06
2018-09-24T12:57:24.725Z,16.02
2018-09-24T12:58:24.756Z,15.93
2018-09-24T12:59:24.788Z,15.65
2018-09-24T13:00:24.817Z,15.58
2018-09-24T13:01:24.848Z,15.47
2018-09-24T13:02:24.882Z,15.41
2018-09-24T13:03:24.907Z,15.37
2018-09-24T13:04:24.934Z,15.35
2018-09-24T13:05:24.964Z,15.23
2018-09-24T13:06:24.995Z,15.19
2018-09-24T13:07:25.024Z,15.16